Time;durP1;ratioP1;P1;durP2;ratioP2;P2;SDS_P1;SDS_P2;PMS_P1;PMS_P2;Temp;Humidity;BMP_temperature;BMP_pressure;BME280_temperature;BME280_humidity;BME280_pressure;Samples;Min_cycle;Max_cycle;Signal;HPM_P1;HPM_P2
2023/05/14 00:01:46;;;;;;;2.28;0.80;;;11.40;99.90;;;;;;5041524;28;20043;-76
2023/05/14 00:04:12;;;;;;;1.75;0.70;;;11.40;99.90;;;;;;5041350;28;20468;-76
2023/05/14 00:06:38;;;;;;;2.55;0.55;;;11.40;99.90;;;;;;5041065;28;20025;-76
2023/05/14 00:09:03;;;;;;;2.55;1.20;;;11.40;99.90;;;;;;5032211;28;20033;-76
2023/05/14 00:11:29;;;;;;;2.38;0.60;;;11.30;99.90;;;;;;5033524;28;20395;-76
2023/05/14 00:13:55;;;;;;;3.95;0.85;;;11.40;99.90;;;;;;5043347;28;20487;-76
2023/05/14 00:16:20;;;;;;;1.90;0.80;;;11.20;99.90;;;;;;5031213;28;20033;-76
2023/05/14 00:18:46;;;;;;;2.80;0.77;;;11.30;99.90;;;;;;5038847;28;20034;-76
2023/05/14 00:21:12;;;;;;;4.05;1.10;;;11.30;99.90;;;;;;5034336;28;20055;-76
2023/05/14 00:23:37;;;;;;;1.67;0.90;;;11.40;99.90;;;;;;5033942;28;20045;-76
2023/05/14 00:26:03;;;;;;;2.15;0.90;;;11.40;99.90;;;;;;5039500;28;20037;-76
2023/05/14 00:28:29;;;;;;;1.50;0.70;;;11.40;99.90;;;;;;5037368;28;20037;-76
2023/05/14 00:30:55;;;;;;;2.30;0.77;;;11.40;99.90;;;;;;5038798;28;20387;-76
2023/05/14 00:33:21;;;;;;;2.22;0.90;;;11.40;99.90;;;;;;5036843;28;20429;-76
2023/05/14 00:35:47;;;;;;;2.72;0.55;;;11.60;99.90;;;;;;5040119;28;20548;-76
2023/05/14 00:38:16;;;;;;;4.97;1.00;;;11.70;99.90;;;;;;5029401;28;20040;-76
2023/05/14 00:40:44;;;;;;;1.20;0.70;;;11.70;99.90;;;;;;5031823;28;20526;-76
2023/05/14 00:43:10;;;;;;;3.25;0.70;;;11.60;99.90;;;;;;5036362;28;20028;-76
2023/05/14 00:45:37;;;;;;;4.07;0.73;;;11.70;99.90;;;;;;5037356;28;20032;-76
2023/05/14 00:48:03;;;;;;;1.98;0.88;;;11.70;99.90;;;;;;5039071;28;20128;-76
2023/05/14 00:50:29;;;;;;;1.45;0.77;;;11.50;99.90;;;;;;5031808;28;20198;-76
2023/05/14 00:52:54;;;;;;;1.95;0.93;;;11.30;99.90;;;;;;5036296;28;20068;-76
2023/05/14 00:55:21;;;;;;;1.33;0.50;;;11.40;99.90;;;;;;5037648;28;20032;-76
2023/05/14 00:57:48;;;;;;;1.48;0.60;;;11.40;99.90;;;;;;5030554;28;20510;-76
2023/05/14 01:00:14;;;;;;;1.13;0.50;;;11.20;99.90;;;;;;5041234;28;20030;-76
2023/05/14 01:02:39;;;;;;;1.55;0.70;;;11.20;99.90;;;;;;5042172;28;20032;-76
2023/05/14 01:05:06;;;;;;;8.27;1.00;;;11.20;99.90;;;;;;5041695;28;20029;-76
2023/05/14 01:07:36;;;;;;;1.15;0.60;;;11.10;99.90;;;;;;5040094;28;20045;-76
2023/05/14 01:10:16;;;;;;;1.20;0.50;;;11.20;99.90;;;;;;5038091;28;20033;-76
2023/05/14 01:12:56;;;;;;;1.95;0.50;;;11.40;99.90;;;;;;5042733;28;20029;-76
2023/05/14 01:15:29;;;;;;;2.58;0.60;;;11.40;99.90;;;;;;5041316;28;20036;-76
2023/05/14 01:18:08;;;;;;;1.63;0.70;;;11.40;99.90;;;;;;5042598;28;20041;-76
2023/05/14 01:20:34;;;;;;;3.67;0.80;;;11.40;99.90;;;;;;5050144;28;20501;-76
2023/05/14 01:23:00;;;;;;;1.13;0.50;;;11.30;99.90;;;;;;5042622;28;20446;-77
2023/05/14 01:25:26;;;;;;;1.58;0.52;;;11.20;99.90;;;;;;5048604;28;20041;-76
2023/05/14 01:28:02;;;;;;;3.05;1.17;;;11.10;99.90;;;;;;5039615;28;20517;-76
2023/05/14 01:30:41;;;;;;;1.48;0.57;;;11.30;99.90;;;;;;5038518;28;20115;-76
2023/05/14 01:33:14;;;;;;;0.93;0.40;;;11.50;99.90;;;;;;5044976;28;20024;-76
2023/05/14 01:35:41;;;;;;;2.67;0.77;;;11.50;99.90;;;;;;5047315;28;20530;-76
2023/05/14 01:38:11;;;;;;;1.77;0.60;;;11.30;99.90;;;;;;5042325;28;20029;-76
2023/05/14 01:40:37;;;;;;;0.88;0.45;;;11.30;99.90;;;;;;5045427;28;20131;-76
2023/05/14 01:43:03;;;;;;;4.15;0.45;;;11.20;99.90;;;;;;5045636;28;20040;-76
2023/05/14 01:45:30;;;;;;;1.30;0.43;;;11.40;99.90;;;;;;5043454;28;20480;-76
2023/05/14 01:47:56;;;;;;;1.45;0.47;;;11.50;99.90;;;;;;5046391;28;20475;-76
2023/05/14 01:50:22;;;;;;;2.63;0.63;;;11.20;99.90;;;;;;5048958;28;20025;-76
2023/05/14 01:52:48;;;;;;;0.73;0.32;;;11.00;99.90;;;;;;5043087;28;20037;-76
2023/05/14 01:55:14;;;;;;;2.05;0.70;;;10.90;99.90;;;;;;5042102;28;20025;-76
2023/05/14 01:57:40;;;;;;;0.57;0.40;;;10.80;99.90;;;;;;5036623;28;20667;-76
2023/05/14 02:00:06;;;;;;;1.35;0.50;;;10.80;99.90;;;;;;5046122;28;20035;-76
2023/05/14 02:02:32;;;;;;;2.22;0.65;;;10.70;99.90;;;;;;5053633;28;20033;-76
2023/05/14 02:04:57;;;;;;;1.42;0.60;;;10.60;99.90;;;;;;5040363;28;20048;-76
2023/05/14 02:07:23;;;;;;;1.13;0.45;;;10.70;99.90;;;;;;5041346;28;20041;-76
2023/05/14 02:09:49;;;;;;;0.95;0.47;;;10.60;99.90;;;;;;5040184;28;20032;-76
2023/05/14 02:12:14;;;;;;;4.05;0.95;;;10.60;99.90;;;;;;5036738;28;20036;-76
2023/05/14 02:14:40;;;;;;;1.23;0.55;;;10.40;99.90;;;;;;5037581;28;20491;-76
2023/05/14 02:17:05;;;;;;;1.73;0.57;;;10.60;99.90;;;;;;5039244;28;20056;-76
2023/05/14 02:19:31;;;;;;;2.53;0.45;;;10.70;99.90;;;;;;5041968;28;20044;-76
2023/05/14 02:21:59;;;;;;;1.30;0.60;;;10.70;99.90;;;;;;5046191;28;20364;-76
2023/05/14 02:24:24;;;;;;;5.43;0.95;;;10.70;99.90;;;;;;5039447;28;20094;-76
2023/05/14 02:26:50;;;;;;;1.02;0.40;;;10.80;99.90;;;;;;5038660;28;20029;-76
2023/05/14 02:29:15;;;;;;;2.08;0.73;;;10.70;99.90;;;;;;5037110;28;20079;-76
2023/05/14 02:31:41;;;;;;;1.80;0.75;;;10.90;99.90;;;;;;5039569;28;20064;-75
2023/05/14 02:34:07;;;;;;;1.45;0.65;;;11.00;99.90;;;;;;5035622;28;20048;-76
2023/05/14 02:36:33;;;;;;;7.38;1.40;;;10.90;99.90;;;;;;5037958;28;20026;-76
2023/05/14 02:38:59;;;;;;;2.00;0.98;;;11.00;99.90;;;;;;5048526;28;20088;-76
2023/05/14 02:41:26;;;;;;;1.67;0.50;;;11.20;99.90;;;;;;5040055;28;20116;-76
2023/05/14 02:43:52;;;;;;;3.42;1.17;;;11.10;99.90;;;;;;5040608;28;20472;-76
2023/05/14 02:46:18;;;;;;;2.75;0.60;;;11.10;99.90;;;;;;5042089;28;20110;-76
2023/05/14 02:48:44;;;;;;;1.35;0.50;;;11.00;99.90;;;;;;5048269;28;20075;-76
2023/05/14 02:51:09;;;;;;;2.50;0.75;;;10.90;99.90;;;;;;5038626;28;20041;-76
2023/05/14 02:53:35;;;;;;;1.35;0.70;;;10.90;99.90;;;;;;5037220;28;20066;-76
2023/05/14 02:56:01;;;;;;;2.33;0.93;;;11.00;99.90;;;;;;5041812;28;20041;-76
2023/05/14 02:58:26;;;;;;;2.60;0.85;;;11.10;99.90;;;;;;5035326;28;20068;-76
2023/05/14 03:00:52;;;;;;;0.95;0.73;;;11.10;99.90;;;;;;5041555;28;20037;-76
2023/05/14 03:03:18;;;;;;;2.35;1.05;;;11.10;99.90;;;;;;5040500;28;20033;-76
2023/05/14 03:05:44;;;;;;;2.20;0.75;;;11.20;99.90;;;;;;5033580;28;20029;-76
2023/05/14 03:08:10;;;;;;;3.50;1.20;;;11.10;99.90;;;;;;5032418;28;20034;-76
2023/05/14 03:10:35;;;;;;;1.27;0.70;;;11.00;99.90;;;;;;5029944;28;20033;-76
2023/05/14 03:13:01;;;;;;;1.13;0.63;;;10.90;99.90;;;;;;5032591;28;20507;-76
2023/05/14 03:15:27;;;;;;;2.47;0.80;;;10.80;99.90;;;;;;5027937;28;20022;-76
2023/05/14 03:17:53;;;;;;;3.03;0.98;;;10.70;99.90;;;;;;5031646;28;21023;-76
2023/05/14 03:20:19;;;;;;;1.90;0.70;;;10.70;99.90;;;;;;5032972;28;20069;-76
2023/05/14 03:22:45;;;;;;;3.50;1.02;;;10.70;99.90;;;;;;5034479;28;20034;-76
2023/05/14 03:25:10;;;;;;;1.95;0.88;;;10.80;99.90;;;;;;5040362;28;20052;-76
2023/05/14 03:27:36;;;;;;;2.10;0.85;;;10.70;99.90;;;;;;5034546;28;20025;-76
2023/05/14 03:30:02;;;;;;;1.17;0.57;;;10.70;99.90;;;;;;5032568;28;20029;-76
2023/05/14 03:32:27;;;;;;;2.28;0.80;;;10.70;99.90;;;;;;5032727;28;20680;-76
2023/05/14 03:34:53;;;;;;;1.83;0.70;;;10.80;99.90;;;;;;5033638;28;20500;-77
2023/05/14 03:37:19;;;;;;;3.22;1.58;;;10.90;99.90;;;;;;5028511;28;20029;-77
2023/05/14 03:39:44;;;;;;;2.40;1.02;;;10.90;99.90;;;;;;5034934;28;20049;-77
2023/05/14 03:42:10;;;;;;;1.83;1.02;;;11.00;99.90;;;;;;5030265;28;20021;-76
2023/05/14 03:44:35;;;;;;;2.03;0.93;;;11.00;99.90;;;;;;5033975;28;20494;-77
2023/05/14 03:47:01;;;;;;;3.08;0.90;;;10.90;99.90;;;;;;5026672;28;20075;-76
2023/05/14 03:49:27;;;;;;;8.35;0.95;;;10.90;99.90;;;;;;5033843;28;20116;-76
2023/05/14 03:51:52;;;;;;;2.50;0.77;;;11.00;99.90;;;;;;5035959;28;20125;-76
2023/05/14 03:54:18;;;;;;;2.40;0.88;;;11.00;99.90;;;;;;5030472;28;20025;-76
2023/05/14 03:56:44;;;;;;;2.25;0.98;;;11.00;99.90;;;;;;5037537;28;20048;-77
2023/05/14 03:59:10;;;;;;;5.07;1.38;;;11.10;99.90;;;;;;5036885;28;20047;-76
2023/05/14 04:01:35;;;;;;;2.45;1.10;;;10.90;99.90;;;;;;5036365;28;20021;-76
2023/05/14 04:04:01;;;;;;;1.35;0.70;;;10.90;99.90;;;;;;5032517;28;20594;-77
2023/05/14 04:06:27;;;;;;;2.45;0.82;;;10.90;99.90;;;;;;5028677;28;20649;-76
2023/05/14 04:08:52;;;;;;;3.90;1.65;;;11.00;99.90;;;;;;5033121;28;20464;-76
2023/05/14 04:11:18;;;;;;;3.13;1.52;;;10.90;99.90;;;;;;5039532;28;20029;-76
2023/05/14 04:13:43;;;;;;;2.80;1.45;;;10.90;99.90;;;;;;5036199;28;20033;-76
2023/05/14 04:16:09;;;;;;;2.10;1.13;;;10.90;99.90;;;;;;5036917;28;20497;-77
2023/05/14 04:18:35;;;;;;;3.15;1.55;;;11.00;99.90;;;;;;5034656;28;20060;-76
2023/05/14 04:21:01;;;;;;;3.88;1.98;;;11.10;99.90;;;;;;5028412;28;20112;-76
2023/05/14 04:23:27;;;;;;;5.28;2.88;;;11.20;99.90;;;;;;5031830;28;20043;-76
2023/05/14 04:25:53;;;;;;;5.38;3.10;;;11.10;99.90;;;;;;5031672;28;20102;-76
2023/05/14 04:28:18;;;;;;;8.63;4.10;;;11.00;99.90;;;;;;5028390;28;20028;-76
2023/05/14 04:30:44;;;;;;;8.77;5.57;;;11.00;99.90;;;;;;5040500;28;20032;-76
2023/05/14 04:33:10;;;;;;;10.45;4.97;;;11.00;99.90;;;;;;5034846;28;20026;-77
2023/05/14 04:35:36;;;;;;;8.27;5.47;;;11.00;99.90;;;;;;5038481;28;20034;-76
2023/05/14 04:38:01;;;;;;;10.40;5.45;;;11.00;99.90;;;;;;5035115;28;20360;-77
2023/05/14 04:40:27;;;;;;;8.80;5.00;;;11.00;99.90;;;;;;5028371;28;20156;-77
2023/05/14 04:42:53;;;;;;;8.18;4.30;;;11.00;99.90;;;;;;5028253;28;20050;-76
2023/05/14 04:45:19;;;;;;;8.77;5.60;;;11.00;99.90;;;;;;5032529;28;20021;-76
2023/05/14 04:47:45;;;;;;;8.13;4.75;;;11.00;99.90;;;;;;5025894;28;20391;-76
2023/05/14 04:50:11;;;;;;;8.40;5.20;;;11.00;99.90;;;;;;5043546;28;20063;-75
2023/05/14 04:52:37;;;;;;;8.25;4.55;;;11.00;99.90;;;;;;5033070;28;20033;-75
2023/05/14 04:55:03;;;;;;;7.88;4.95;;;10.90;99.90;;;;;;5030338;28;20120;-75
2023/05/14 04:57:29;;;;;;;8.20;4.47;;;10.90;99.90;;;;;;5032638;28;20112;-75
2023/05/14 04:59:55;;;;;;;8.63;5.30;;;11.10;99.90;;;;;;5046172;28;20029;-76
2023/05/14 05:02:20;;;;;;;5.93;4.05;;;11.00;99.90;;;;;;5028630;28;20045;-75
2023/05/14 05:04:46;;;;;;;6.40;3.97;;;11.00;99.90;;;;;;5032562;28;20056;-75
2023/05/14 05:07:12;;;;;;;5.60;2.47;;;11.10;99.90;;;;;;5035104;28;20041;-77
2023/05/14 05:09:38;;;;;;;3.42;1.75;;;11.20;99.90;;;;;;5033858;28;20480;-78
2023/05/14 05:12:04;;;;;;;3.17;1.40;;;11.40;99.90;;;;;;5030278;28;20060;-77
2023/05/14 05:14:30;;;;;;;5.32;2.35;;;11.60;99.90;;;;;;5030799;28;20329;-78
2023/05/14 05:16:55;;;;;;;7.03;2.40;;;11.50;99.90;;;;;;5032052;28;20032;-77
2023/05/14 05:19:21;;;;;;;4.90;2.47;;;11.50;99.90;;;;;;5032729;28;20025;-78
2023/05/14 05:21:47;;;;;;;12.77;3.17;;;11.50;99.90;;;;;;5026693;28;20040;-77
2023/05/14 05:24:12;;;;;;;3.95;2.53;;;11.40;99.90;;;;;;5027174;28;20033;-75
2023/05/14 05:26:38;;;;;;;5.10;2.30;;;11.40;99.90;;;;;;5033358;28;20024;-75
2023/05/14 05:29:04;;;;;;;12.23;2.42;;;11.50;99.90;;;;;;5024500;28;20064;-76
2023/05/14 05:31:30;;;;;;;4.30;2.55;;;11.60;99.90;;;;;;5028169;28;20116;-75
2023/05/14 05:34:00;;;;;;;7.03;2.50;;;11.60;99.90;;;;;;5034477;28;20028;-76
2023/05/14 05:36:25;;;;;;;5.68;2.83;;;11.70;99.90;;;;;;5026545;28;20064;-75
2023/05/14 05:38:51;;;;;;;4.95;2.33;;;11.60;99.90;;;;;;5028789;28;22266;-75
2023/05/14 05:41:17;;;;;;;5.20;2.67;;;11.50;99.90;;;;;;5026281;28;20470;-75
2023/05/14 05:43:42;;;;;;;6.60;2.20;;;11.60;99.90;;;;;;5028953;28;20604;-75
2023/05/14 05:46:08;;;;;;;5.05;2.88;;;11.60;99.90;;;;;;5029637;28;20033;-76
2023/05/14 05:48:33;;;;;;;3.60;2.00;;;11.80;99.90;;;;;;5035087;28;20037;-75
2023/05/14 05:50:59;;;;;;;3.58;2.25;;;11.60;99.90;;;;;;5028602;28;20824;-75
2023/05/14 05:53:25;;;;;;;4.90;2.40;;;11.60;99.90;;;;;;5036763;28;20534;-75
2023/05/14 05:55:51;;;;;;;3.67;1.73;;;11.60;99.90;;;;;;5029674;28;20087;-76
2023/05/14 05:58:17;;;;;;;2.83;1.67;;;11.70;99.90;;;;;;5033441;28;20045;-75
2023/05/14 06:00:44;;;;;;;3.85;1.75;;;11.80;99.90;;;;;;5043214;28;20087;-76
2023/05/14 06:03:10;;;;;;;2.92;1.80;;;11.90;99.90;;;;;;5034889;28;20037;-75
2023/05/14 06:05:36;;;;;;;4.38;1.60;;;11.90;99.90;;;;;;5030912;28;20025;-76
2023/05/14 06:08:01;;;;;;;4.15;2.17;;;12.00;99.90;;;;;;5037865;28;20561;-76
2023/05/14 06:10:27;;;;;;;5.13;1.95;;;12.10;99.90;;;;;;5035227;28;20544;-74
2023/05/14 06:12:53;;;;;;;3.83;2.17;;;12.10;99.90;;;;;;5036599;28;20049;-77
2023/05/14 06:15:19;;;;;;;4.50;2.40;;;12.20;99.90;;;;;;5025847;28;20759;-75
2023/05/14 06:17:45;;;;;;;3.88;1.58;;;12.30;99.90;;;;;;5025367;28;20030;-75
2023/05/14 06:20:11;;;;;;;3.28;1.70;;;12.40;99.90;;;;;;5032856;28;20025;-75
2023/05/14 06:22:36;;;;;;;4.85;1.98;;;12.40;99.90;;;;;;5033000;28;20335;-74
2023/05/14 06:25:03;;;;;;;15.95;2.17;;;12.50;99.90;;;;;;5033318;28;20057;-75
2023/05/14 06:27:29;;;;;;;4.60;1.90;;;12.50;99.90;;;;;;5029182;28;20099;-74
2023/05/14 06:29:55;;;;;;;5.47;2.10;;;12.70;99.90;;;;;;5038706;28;20021;-79
2023/05/14 06:32:20;;;;;;;5.85;2.20;;;12.70;99.90;;;;;;5030981;28;20044;-74
2023/05/14 06:34:46;;;;;;;2.90;1.50;;;12.60;99.90;;;;;;5031676;28;20025;-76
2023/05/14 06:37:12;;;;;;;4.18;2.28;;;12.60;99.90;;;;;;5027100;28;20025;-75
2023/05/14 06:39:38;;;;;;;3.33;1.88;;;12.80;99.90;;;;;;5030893;28;20392;-75
2023/05/14 06:42:04;;;;;;;5.20;2.47;;;12.80;99.90;;;;;;5039673;28;20128;-75
2023/05/14 06:44:30;;;;;;;4.30;2.22;;;12.90;99.90;;;;;;5031220;28;20028;-75
2023/05/14 06:46:56;;;;;;;3.28;1.80;;;13.00;99.90;;;;;;5032611;28;20024;-76
2023/05/14 06:49:21;;;;;;;4.53;1.80;;;12.80;99.90;;;;;;5029125;28;20043;-75
2023/05/14 06:51:47;;;;;;;3.38;1.80;;;12.80;99.90;;;;;;5025888;28;20041;-75
2023/05/14 06:54:13;;;;;;;2.88;1.60;;;12.90;99.90;;;;;;5027800;28;20513;-76
2023/05/14 06:56:39;;;;;;;3.47;1.70;;;13.00;99.90;;;;;;5028620;28;20430;-75
2023/05/14 06:59:04;;;;;;;3.10;1.83;;;13.20;99.90;;;;;;5030439;28;20104;-75
2023/05/14 07:01:30;;;;;;;6.32;1.65;;;13.20;99.90;;;;;;5030382;28;20469;-75
2023/05/14 07:03:55;;;;;;;3.92;2.30;;;13.40;99.90;;;;;;5038082;28;21066;-76
2023/05/14 07:06:22;;;;;;;4.40;2.17;;;13.50;99.90;;;;;;5025525;28;20108;-76
2023/05/14 07:08:47;;;;;;;3.88;2.10;;;13.50;99.90;;;;;;5027383;28;20049;-76
2023/05/14 07:11:13;;;;;;;5.05;1.70;;;13.50;99.90;;;;;;5024532;28;20044;-76
2023/05/14 07:13:40;;;;;;;3.88;1.98;;;13.70;99.90;;;;;;5024364;28;20033;-75
2023/05/14 07:16:08;;;;;;;3.47;1.83;;;13.90;99.90;;;;;;5028135;28;20092;-76
2023/05/14 07:18:34;;;;;;;4.63;2.22;;;14.00;99.90;;;;;;5024955;28;20482;-76
2023/05/14 07:20:59;;;;;;;4.05;1.77;;;14.30;99.90;;;;;;5022431;28;20045;-75
2023/05/14 07:23:25;;;;;;;2.65;1.63;;;14.60;99.90;;;;;;5037601;28;20712;-75
2023/05/14 07:25:50;;;;;;;3.60;1.85;;;15.20;99.90;;;;;;5022710;28;20028;-76
2023/05/14 07:28:16;;;;;;;3.17;1.80;;;15.10;99.90;;;;;;5034258;28;22461;-76
2023/05/14 07:30:42;;;;;;;3.40;1.60;;;15.30;99.90;;;;;;5035863;28;20411;-76
2023/05/14 07:33:07;;;;;;;2.88;1.60;;;15.20;99.90;;;;;;5025799;28;20068;-76
2023/05/14 07:35:33;;;;;;;4.60;2.10;;;15.40;99.90;;;;;;5031162;28;20976;-76
2023/05/14 07:37:59;;;;;;;3.45;1.98;;;15.70;99.90;;;;;;5031986;28;20597;-76
2023/05/14 07:40:25;;;;;;;4.45;2.03;;;15.50;99.90;;;;;;5023997;28;20089;-77
2023/05/14 07:42:50;;;;;;;3.67;1.92;;;15.10;99.90;;;;;;5029005;28;20589;-75
2023/05/14 07:45:16;;;;;;;3.80;2.30;;;14.80;99.90;;;;;;5038193;28;20569;-75
2023/05/14 07:47:42;;;;;;;3.60;2.10;;;14.60;99.90;;;;;;5022543;28;20037;-75
2023/05/14 07:50:08;;;;;;;2.65;1.50;;;15.00;99.90;;;;;;5031604;28;20091;-75
2023/05/14 07:52:33;;;;;;;4.97;2.20;;;15.30;99.90;;;;;;5033341;28;20029;-74
2023/05/14 07:55:00;;;;;;;3.20;1.63;;;15.10;99.90;;;;;;5028008;28;20597;-75
2023/05/14 07:57:26;;;;;;;2.97;1.63;;;15.00;99.90;;;;;;5024268;28;20052;-75
2023/05/14 07:59:51;;;;;;;2.53;1.35;;;14.90;99.90;;;;;;5027596;28;20136;-75
2023/05/14 08:02:17;;;;;;;3.10;1.40;;;14.90;99.90;;;;;;5032650;28;20040;-75
2023/05/14 08:04:43;;;;;;;2.63;1.50;;;15.00;99.90;;;;;;5032851;28;20037;-75
2023/05/14 08:07:09;;;;;;;3.30;1.67;;;15.10;99.90;;;;;;5029699;28;20033;-75
2023/05/14 08:09:35;;;;;;;3.55;1.88;;;15.00;99.90;;;;;;5035723;28;20367;-75
2023/05/14 08:12:00;;;;;;;3.78;2.60;;;14.80;99.90;;;;;;5035229;28;20021;-75
2023/05/14 08:14:27;;;;;;;4.03;2.17;;;14.70;99.90;;;;;;5026428;28;20525;-75
2023/05/14 08:16:52;;;;;;;16.52;4.05;;;14.60;99.90;;;;;;5028706;28;20036;-75
2023/05/14 08:19:18;;;;;;;10.40;3.20;;;14.50;99.90;;;;;;5026508;28;20103;-75
2023/05/14 08:21:44;;;;;;;9.10;3.50;;;14.60;99.90;;;;;;5023771;28;20044;-77
2023/05/14 08:24:10;;;;;;;4.80;2.30;;;14.80;99.90;;;;;;5033174;28;20029;-77
2023/05/14 08:26:37;;;;;;;4.65;2.22;;;15.00;99.90;;;;;;5028112;28;20059;-76
2023/05/14 08:29:03;;;;;;;5.80;1.90;;;15.00;99.90;;;;;;5032522;28;20033;-76
2023/05/14 08:31:29;;;;;;;5.15;2.47;;;14.90;99.90;;;;;;5036888;28;20057;-74
2023/05/14 08:33:54;;;;;;;3.08;1.65;;;15.00;99.90;;;;;;5038287;28;20053;-76
2023/05/14 08:36:20;;;;;;;3.03;1.67;;;15.20;99.90;;;;;;5044287;28;20033;-76
2023/05/14 08:38:47;;;;;;;5.00;1.15;;;15.10;99.90;;;;;;5036534;28;20087;-76
2023/05/14 08:41:14;;;;;;;3.00;1.50;;;15.20;99.90;;;;;;5045080;28;20037;-76
2023/05/14 08:44:10;;;;;;;2.05;0.82;;;15.20;99.90;;;;;;5043816;28;20045;-76
2023/05/14 08:46:37;;;;;;;2.85;0.65;;;15.30;99.90;;;;;;5045174;28;20033;-76
2023/05/14 08:49:23;;;;;;;2.72;1.10;;;15.40;99.90;;;;;;5041008;28;20062;-77
2023/05/14 08:51:48;;;;;;;1.65;0.90;;;15.80;99.90;;;;;;5022901;28;20537;-76
2023/05/14 08:54:16;;;;;;;1.90;1.00;;;16.00;99.90;;;;;;5035174;28;20040;-76
2023/05/14 08:56:47;;;;;;;1.73;0.80;;;16.00;99.90;;;;;;5047262;28;20027;-76
2023/05/14 08:59:13;;;;;;;9.02;2.80;;;15.90;99.90;;;;;;5047280;28;20029;-76
2023/05/14 09:01:41;;;;;;;7.65;1.73;;;15.70;99.90;;;;;;5047939;28;20036;-76
2023/05/14 09:04:09;;;;;;;4.65;2.45;;;15.70;99.90;;;;;;5046720;28;20037;-76
2023/05/14 09:06:38;;;;;;;5.35;2.55;;;15.50;99.90;;;;;;5045359;28;20033;-76
2023/05/14 09:09:04;;;;;;;6.45;2.25;;;15.70;99.90;;;;;;5028066;28;20065;-77
2023/05/14 09:11:30;;;;;;;4.32;2.47;;;15.70;99.90;;;;;;5028219;28;20057;-76
2023/05/14 09:13:56;;;;;;;4.13;2.28;;;15.50;99.90;;;;;;5047649;28;20025;-76
2023/05/14 09:16:24;;;;;;;3.90;2.20;;;15.50;99.90;;;;;;5046433;28;20104;-76
2023/05/14 09:18:50;;;;;;;3.30;1.85;;;15.50;99.90;;;;;;5046608;28;20072;-76
2023/05/14 09:21:17;;;;;;;4.65;1.83;;;15.50;99.90;;;;;;5049973;28;20394;-76
2023/05/14 09:23:44;;;;;;;5.65;2.90;;;15.70;99.90;;;;;;5048759;28;20032;-76
2023/05/14 09:26:10;;;;;;;3.30;1.90;;;15.80;99.90;;;;;;5038722;28;20036;-76
2023/05/14 09:28:40;;;;;;;5.05;3.00;;;15.70;99.90;;;;;;5051960;28;20033;-76
2023/05/14 09:31:08;;;;;;;4.85;2.28;;;15.80;99.90;;;;;;5049842;28;20033;-76
2023/05/14 09:33:33;;;;;;;3.42;1.88;;;15.90;99.90;;;;;;5049827;28;20029;-76
2023/05/14 09:36:00;;;;;;;3.72;2.17;;;15.80;99.90;;;;;;5042735;28;20029;-75
2023/05/14 09:38:32;;;;;;;3.40;1.98;;;15.80;99.90;;;;;;5038016;28;20047;-76
2023/05/14 09:40:59;;;;;;;3.10;1.77;;;15.90;99.90;;;;;;5038254;28;20497;-77
2023/05/14 09:43:25;;;;;;;3.45;1.83;;;15.90;99.90;;;;;;5041435;28;20044;-78
2023/05/14 09:45:52;;;;;;;2.90;1.65;;;16.10;99.90;;;;;;5035540;28;20491;-77
2023/05/14 09:48:18;;;;;;;3.67;1.73;;;16.00;99.90;;;;;;5032254;28;20068;-77
2023/05/14 09:50:45;;;;;;;2.60;1.23;;;16.20;99.90;;;;;;5036683;28;20033;-77
2023/05/14 09:53:12;;;;;;;3.13;1.50;;;16.10;99.90;;;;;;5030668;28;20136;-77
2023/05/14 09:55:38;;;;;;;3.13;2.00;;;16.10;99.90;;;;;;5028774;28;20032;-77
2023/05/14 09:58:04;;;;;;;5.38;1.48;;;15.90;99.90;;;;;;5037365;28;20024;-78
2023/05/14 10:00:33;;;;;;;3.03;1.45;;;16.10;99.90;;;;;;5036736;28;20120;-77
2023/05/14 10:03:05;;;;;;;3.47;1.40;;;16.10;99.90;;;;;;5039791;28;20086;-77
2023/05/14 10:05:35;;;;;;;3.42;1.40;;;16.10;99.90;;;;;;5038429;28;20025;-76
2023/05/14 10:08:07;;;;;;;3.63;1.08;;;16.00;99.90;;;;;;5029895;28;20390;-76
2023/05/14 10:10:34;;;;;;;3.30;1.27;;;16.00;99.90;;;;;;5038121;28;20496;-76
2023/05/14 10:13:06;;;;;;;2.08;1.25;;;16.00;99.90;;;;;;5029599;28;20063;-76
2023/05/14 10:15:47;;;;;;;2.70;1.10;;;16.00;99.90;;;;;;5034379;28;20087;-75
2023/05/14 10:18:17;;;;;;;5.13;1.50;;;15.80;99.90;;;;;;5034604;28;20033;-76
2023/05/14 10:20:46;;;;;;;2.58;1.27;;;15.80;99.90;;;;;;5029257;28;20045;-76
2023/05/14 10:23:13;;;;;;;3.05;1.55;;;15.80;99.90;;;;;;5027861;28;20029;-76
2023/05/14 10:25:39;;;;;;;3.58;1.70;;;15.80;99.90;;;;;;5034722;28;20017;-76
2023/05/14 10:28:05;;;;;;;2.53;1.20;;;15.70;99.90;;;;;;5039021;28;20112;-76
2023/05/14 10:30:31;;;;;;;2.70;1.30;;;15.70;99.90;;;;;;5035205;28;20642;-76
2023/05/14 10:33:14;;;;;;;2.75;1.45;;;15.70;99.90;;;;;;5030391;28;20507;-76
2023/05/14 10:36:05;;;;;;;1.98;1.13;;;15.80;99.90;;;;;;5035612;28;20558;-76
2023/05/14 10:38:35;;;;;;;2.08;0.90;;;15.90;99.90;;;;;;5041055;28;20455;-76
2023/05/14 10:41:06;;;;;;;1.85;1.00;;;15.80;99.90;;;;;;5036039;28;20068;-76
2023/05/14 10:43:37;;;;;;;3.28;1.20;;;15.90;99.90;;;;;;5031066;28;20461;-76
2023/05/14 10:46:03;;;;;;;1.90;0.82;;;15.90;99.90;;;;;;5034495;28;20493;-76
2023/05/14 10:48:29;;;;;;;2.80;1.17;;;15.90;99.90;;;;;;5040149;28;20041;-76
2023/05/14 10:50:56;;;;;;;2.22;1.23;;;16.00;99.90;;;;;;5033668;28;20035;-76
2023/05/14 10:53:40;;;;;;;4.20;1.40;;;16.00;99.90;;;;;;5039386;28;20032;-76
2023/05/14 10:56:10;;;;;;;2.13;0.90;;;16.00;99.90;;;;;;5034516;28;20107;-77
2023/05/14 10:58:42;;;;;;;3.47;1.10;;;16.20;99.90;;;;;;5033813;28;20033;-76
2023/05/14 11:01:09;;;;;;;18.52;3.05;;;16.30;99.90;;;;;;5027758;28;20051;-76
2023/05/14 11:03:41;;;;;;;6.68;1.80;;;16.30;99.90;;;;;;5031792;28;20025;-78
2023/05/14 11:06:07;;;;;;;9.15;1.58;;;16.20;99.90;;;;;;5038870;28;20131;-77
2023/05/14 11:08:33;;;;;;;22.70;5.10;;;16.20;99.90;;;;;;5034761;28;20541;-76
2023/05/14 11:10:59;;;;;;;5.97;2.97;;;16.30;99.90;;;;;;5033932;28;20043;-75
2023/05/14 11:13:28;;;;;;;3.45;1.60;;;16.40;99.90;;;;;;5036854;28;20033;-76
2023/05/14 11:15:54;;;;;;;3.08;1.42;;;16.30;99.90;;;;;;5033971;28;20033;-74
2023/05/14 11:18:32;;;;;;;5.22;1.95;;;16.50;99.90;;;;;;5028331;28;20041;-76
2023/05/14 11:20:59;;;;;;;9.25;6.60;;;16.70;99.90;;;;;;5035683;28;20041;-76
2023/05/14 11:23:25;;;;;;;3.83;2.25;;;16.50;99.90;;;;;;5035844;28;20655;-77
2023/05/14 11:25:52;;;;;;;2.65;1.20;;;16.70;99.90;;;;;;5033015;28;20048;-77
2023/05/14 11:28:23;;;;;;;7.80;5.47;;;16.70;99.90;;;;;;5034209;28;20056;-77
2023/05/14 11:30:50;;;;;;;4.63;2.38;;;16.50;99.90;;;;;;5032732;28;20399;-77
2023/05/14 11:33:16;;;;;;;3.55;2.28;;;16.50;99.90;;;;;;5032581;28;20033;-76
2023/05/14 11:35:44;;;;;;;4.82;1.75;;;16.50;99.90;;;;;;5030867;28;20033;-79
2023/05/14 11:38:20;;;;;;;5.82;3.03;;;16.50;99.90;;;;;;5033679;28;20038;-81
2023/05/14 11:40:53;;;;;;;3.05;1.75;;;16.70;99.90;;;;;;5034117;28;20048;-76
2023/05/14 11:43:18;;;;;;;4.18;1.90;;;16.70;99.90;;;;;;5033789;28;20041;-75
2023/05/14 11:45:50;;;;;;;1.55;1.08;;;16.60;99.90;;;;;;5037630;28;20059;-80
2023/05/14 11:48:16;;;;;;;1.77;0.98;;;16.70;99.90;;;;;;5032148;28;20033;-77
2023/05/14 11:50:47;;;;;;;2.70;1.38;;;16.80;99.90;;;;;;5035459;28;20033;-77
2023/05/14 11:53:18;;;;;;;4.13;1.45;;;16.80;99.90;;;;;;5034110;28;20032;-77
2023/05/14 11:55:46;;;;;;;7.82;1.45;;;16.70;99.90;;;;;;5032039;28;20116;-77
2023/05/14 11:58:12;;;;;;;4.40;3.28;;;16.60;99.90;;;;;;5034844;28;20109;-78
2023/05/14 12:00:39;;;;;;;2.92;1.73;;;16.50;99.90;;;;;;5033838;28;20025;-78
2023/05/14 12:03:04;;;;;;;2.80;1.27;;;16.50;99.90;;;;;;5039151;28;20122;-77
2023/05/14 12:05:30;;;;;;;4.07;1.75;;;16.50;99.90;;;;;;5032975;28;20467;-78
2023/05/14 12:07:56;;;;;;;2.00;0.90;;;16.60;99.90;;;;;;5032428;28;20040;-77
2023/05/14 12:10:21;;;;;;;3.42;1.10;;;16.60;99.90;;;;;;5032903;28;20025;-77
2023/05/14 12:12:48;;;;;;;6.75;1.27;;;16.60;99.90;;;;;;5027639;28;20069;-78
2023/05/14 12:15:15;;;;;;;2.70;0.95;;;16.60;99.90;;;;;;5027954;28;20036;-78
2023/05/14 12:17:41;;;;;;;2.20;1.10;;;16.60;99.90;;;;;;5032429;28;20051;-78
2023/05/14 12:20:10;;;;;;;2.35;1.10;;;16.60;99.90;;;;;;5025840;28;20021;-77
2023/05/14 12:22:36;;;;;;;2.85;1.10;;;16.60;99.90;;;;;;5027245;28;20021;-79
2023/05/14 12:25:02;;;;;;;2.42;0.85;;;16.50;99.90;;;;;;5030263;28;20040;-79
2023/05/14 12:27:29;;;;;;;3.60;1.05;;;16.50;99.90;;;;;;5028718;28;20617;-79
2023/05/14 12:30:02;;;;;;;1.85;0.80;;;16.20;99.90;;;;;;5036727;28;20051;-79
2023/05/14 12:32:32;;;;;;;6.65;1.60;;;16.30;99.90;;;;;;5032875;28;20033;-79
2023/05/14 12:34:58;;;;;;;2.33;0.93;;;16.50;99.90;;;;;;5025456;28;20029;-79
2023/05/14 12:37:23;;;;;;;1.40;0.88;;;16.60;99.90;;;;;;5033522;28;20100;-80
2023/05/14 12:39:49;;;;;;;4.10;1.60;;;16.70;99.90;;;;;;5031571;28;20144;-79
2023/05/14 12:42:15;;;;;;;7.63;1.70;;;16.90;99.90;;;;;;5025397;28;20062;-80
2023/05/14 12:44:41;;;;;;;5.85;1.20;;;16.80;99.90;;;;;;5031319;28;20028;-80